Terminal Aerodrome Forecast
Issued by NWS

Home | Current Version | Previous Version | Text Only | Print | Product List | Glossary On
Versions: 1 2 3 4 5 6 7 8 9 10 11 12 13 14 15 16 17
959
FTUS43 KMQT 201901 AAA
TAFIWD
TAF AMD
KIWD 201901Z 2019/2118 11003KT 6SM -RA OVC020
     FM202100 13004KT 4SM -RA BR OVC008
     FM211500 13006KT P6SM OVC008=

USA.gov is the U.S. government's official web portal to all federal, state and local government web resources and services.